Selebi Phikwe, Botswana
Current Conditions -  °F | °C
As of 8:00 PM on Saturday 22 Nov 2014 (Local Time) from FBSP Reporting Station
Clear Clear  
Wind Chill: 86°   Ceiling: Unl
Heat Index: 86°   Visibility: 6mi
Dew Point: 61°   Wind: 7mph
Humidity: 43%   Direction: 140°SE
Pressure: 30.03"   Gusts: NA
Location:  22.06°S, 27.83°E
Report Text: FBSP 221800Z 14006KT CAVOK 30/16 Q1017
Loading
Personal Weather Stations






























Interactive Weather Map New forecast layout! Learn more

10-Day Weather Forecast

Advertisements
Track Severe Weather on mobile